sensor_id;sensor_type;location;lat;lon;timestamp;pressure;altitude;pressure_sealevel;temperature;humidity
46087;BME280;31824;49.648;8.640;2023-02-15T00:02:25;101888.53;;;-0.26;100.00
46087;BME280;31824;49.648;8.640;2023-02-15T00:05:27;101874.69;;;-0.27;100.00
46087;BME280;31824;49.648;8.640;2023-02-15T00:08:31;101874.00;;;-0.26;100.00
46087;BME280;31824;49.648;8.640;2023-02-15T00:11:33;101868.09;;;-0.25;100.00
46087;BME280;31824;49.648;8.640;2023-02-15T00:14:53;101866.06;;;-0.16;100.00
46087;BME280;31824;49.648;8.640;2023-02-15T00:17:56;101858.09;;;-0.18;100.00
46087;BME280;31824;49.648;8.640;2023-02-15T00:20:58;101858.78;;;-0.19;100.00
46087;BME280;31824;49.648;8.640;2023-02-15T00:24:06;101860.88;;;-0.22;100.00
46087;BME280;31824;49.648;8.640;2023-02-15T00:27:08;101861.75;;;-0.27;100.00
46087;BME280;31824;49.648;8.640;2023-02-15T00:30:11;101860.88;;;-0.22;100.00
46087;BME280;31824;49.648;8.640;2023-02-15T00:33:14;101858.41;;;-0.31;100.00
46087;BME280;31824;49.648;8.640;2023-02-15T00:36:16;101851.38;;;-0.32;100.00
46087;BME280;31824;49.648;8.640;2023-02-15T00:39:19;101855.34;;;-0.35;100.00
46087;BME280;31824;49.648;8.640;2023-02-15T00:42:21;101852.81;;;-0.29;100.00
46087;BME280;31824;49.648;8.640;2023-02-15T00:45:23;101851.25;;;-0.17;100.00
46087;BME280;31824;49.648;8.640;2023-02-15T00:48:27;101853.19;;;-0.10;100.00
46087;BME280;31824;49.648;8.640;2023-02-15T00:51:30;101851.03;;;-0.19;100.00
46087;BME280;31824;49.648;8.640;2023-02-15T00:54:32;101848.31;;;-0.03;100.00
46087;BME280;31824;49.648;8.640;2023-02-15T00:57:33;101851.84;;;-0.35;100.00
46087;BME280;31824;49.648;8.640;2023-02-15T01:00:36;101849.84;;;-0.47;100.00
46087;BME280;31824;49.648;8.640;2023-02-15T01:03:40;101847.44;;;-0.25;100.00
46087;BME280;31824;49.648;8.640;2023-02-15T01:06:43;101843.31;;;-0.13;100.00
46087;BME280;31824;49.648;8.640;2023-02-15T01:09:45;101838.34;;;-0.17;100.00
46087;BME280;31824;49.648;8.640;2023-02-15T01:12:47;101847.31;;;-0.15;100.00
46087;BME280;31824;49.648;8.640;2023-02-15T01:15:52;101840.50;;;-0.14;100.00
46087;BME280;31824;49.648;8.640;2023-02-15T01:18:56;101839.34;;;-0.11;100.00
46087;BME280;31824;49.648;8.640;2023-02-15T01:21:58;101834.19;;;-0.11;100.00
46087;BME280;31824;49.648;8.640;2023-02-15T01:25:00;101849.88;;;-0.15;100.00
46087;BME280;31824;49.648;8.640;2023-02-15T01:28:04;101845.41;;;-0.16;100.00
46087;BME280;31824;49.648;8.640;2023-02-15T01:31:07;101832.97;;;-0.13;100.00
46087;BME280;31824;49.648;8.640;2023-02-15T01:34:11;101839.34;;;-0.11;100.00
46087;BME280;31824;49.648;8.640;2023-02-15T01:37:13;101840.25;;;-0.16;100.00
46087;BME280;31824;49.648;8.640;2023-02-15T01:40:17;101831.50;;;-0.22;100.00
46087;BME280;31824;49.648;8.640;2023-02-15T01:43:19;101828.06;;;-0.11;100.00
46087;BME280;31824;49.648;8.640;2023-02-15T01:46:25;101834.44;;;-0.09;100.00
46087;BME280;31824;49.648;8.640;2023-02-15T01:49:30;101825.41;;;-0.23;100.00
46087;BME280;31824;49.648;8.640;2023-02-15T01:52:33;101817.66;;;-0.23;100.00
46087;BME280;31824;49.648;8.640;2023-02-15T01:55:39;101822.16;;;-0.16;100.00
46087;BME280;31824;49.648;8.640;2023-02-15T01:58:43;101825.00;;;-0.14;100.00
46087;BME280;31824;49.648;8.640;2023-02-15T02:01:45;101821.94;;;-0.18;100.00
46087;BME280;31824;49.648;8.640;2023-02-15T02:04:51;101825.69;;;-0.15;100.00
46087;BME280;31824;49.648;8.640;2023-02-15T02:07:56;101821.28;;;-0.11;100.00
46087;BME280;31824;49.648;8.640;2023-02-15T02:10:58;101819.13;;;-0.13;100.00
46087;BME280;31824;49.648;8.640;2023-02-15T02:14:00;101818.91;;;-0.15;100.00
46087;BME280;31824;49.648;8.640;2023-02-15T02:17:09;101813.97;;;-0.13;100.00
46087;BME280;31824;49.648;8.640;2023-02-15T02:20:30;101811.19;;;-0.09;100.00
46087;BME280;31824;49.648;8.640;2023-02-15T02:23:40;101810.22;;;-0.10;100.00
46087;BME280;31824;49.648;8.640;2023-02-15T02:27:01;101814.09;;;-0.23;100.00
46087;BME280;31824;49.648;8.640;2023-02-15T02:30:36;101805.47;;;-0.18;100.00
46087;BME280;31824;49.648;8.640;2023-02-15T02:33:49;101803.91;;;-0.39;100.00
46087;BME280;31824;49.648;8.640;2023-02-15T02:36:58;101801.53;;;-0.43;100.00
46087;BME280;31824;49.648;8.640;2023-02-15T02:40:09;101795.13;;;-0.18;100.00
46087;BME280;31824;49.648;8.640;2023-02-15T02:43:18;101789.22;;;-0.28;100.00
46087;BME280;31824;49.648;8.640;2023-02-15T02:46:26;101793.66;;;-0.27;100.00
46087;BME280;31824;49.648;8.640;2023-02-15T02:49:32;101789.00;;;-0.24;100.00
46087;BME280;31824;49.648;8.640;2023-02-15T02:52:38;101791.06;;;-0.27;100.00
46087;BME280;31824;49.648;8.640;2023-02-15T02:55:43;101791.34;;;-0.26;100.00
46087;BME280;31824;49.648;8.640;2023-02-15T02:58:49;101785.19;;;-0.32;100.00
46087;BME280;31824;49.648;8.640;2023-02-15T03:01:57;101784.91;;;-0.39;100.00
46087;BME280;31824;49.648;8.640;2023-02-15T03:05:06;101790.22;;;-0.49;100.00
46087;BME280;31824;49.648;8.640;2023-02-15T03:08:11;101784.91;;;-0.39;100.00
46087;BME280;31824;49.648;8.640;2023-02-15T03:11:15;101773.13;;;-0.43;100.00
46087;BME280;31824;49.648;8.640;2023-02-15T03:14:18;101772.69;;;-0.40;100.00
46087;BME280;31824;49.648;8.640;2023-02-15T03:17:22;101771.88;;;-0.51;100.00
46087;BME280;31824;49.648;8.640;2023-02-15T03:20:30;101772.84;;;-0.50;100.00
46087;BME280;31824;49.648;8.640;2023-02-15T03:23:36;101778.50;;;-0.47;100.00
46087;BME280;31824;49.648;8.640;2023-02-15T03:26:40;101773.13;;;-0.43;100.00
46087;BME280;31824;49.648;8.640;2023-02-15T03:29:45;101789.53;;;-0.42;100.00
46087;BME280;31824;49.648;8.640;2023-02-15T03:32:48;101786.94;;;-0.48;100.00
46087;BME280;31824;49.648;8.640;2023-02-15T03:35:55;101786.03;;;-0.43;100.00
46087;BME280;31824;49.648;8.640;2023-02-15T03:39:04;101785.78;;;-0.44;100.00
46087;BME280;31824;49.648;8.640;2023-02-15T03:42:13;101787.44;;;-0.45;100.00
46087;BME280;31824;49.648;8.640;2023-02-15T03:45:19;101799.22;;;-0.36;100.00
46087;BME280;31824;49.648;8.640;2023-02-15T03:48:26;101792.44;;;-0.35;100.00
46087;BME280;31824;49.648;8.640;2023-02-15T03:51:34;101795.63;;;-0.47;100.00
46087;BME280;31824;49.648;8.640;2023-02-15T03:54:39;101797.28;;;-0.42;100.00
46087;BME280;31824;49.648;8.640;2023-02-15T03:57:44;101785.84;;;-0.39;100.00
46087;BME280;31824;49.648;8.640;2023-02-15T04:01:12;101791.56;;;-0.57;100.00
46087;BME280;31824;49.648;8.640;2023-02-15T04:04:36;101779.22;;;-0.75;100.00
46087;BME280;31824;49.648;8.640;2023-02-15T04:07:39;101775.03;;;-0.69;100.00
46087;BME280;31824;49.648;8.640;2023-02-15T04:10:41;101769.91;;;-0.63;100.00
46087;BME280;31824;49.648;8.640;2023-02-15T04:13:54;101766.84;;;-0.66;100.00
46087;BME280;31824;49.648;8.640;2023-02-15T04:16:58;101761.53;;;-0.56;100.00
46087;BME280;31824;49.648;8.640;2023-02-15T04:19:59;101763.28;;;-0.40;100.00
46087;BME280;31824;49.648;8.640;2023-02-15T04:23:21;101762.19;;;-0.30;100.00
46087;BME280;31824;49.648;8.640;2023-02-15T04:26:41;101765.50;;;-0.26;100.00
46087;BME280;31824;49.648;8.640;2023-02-15T04:29:43;101761.09;;;-0.15;100.00
46087;BME280;31824;49.648;8.640;2023-02-15T04:32:45;101766.53;;;-0.08;100.00
46087;BME280;31824;49.648;8.640;2023-02-15T04:35:47;101763.56;;;0.00;100.00
46087;BME280;31824;49.648;8.640;2023-02-15T04:38:50;101762.34;;;-0.02;100.00
46087;BME280;31824;49.648;8.640;2023-02-15T04:41:52;101763.03;;;-0.09;100.00
46087;BME280;31824;49.648;8.640;2023-02-15T04:44:53;101757.84;;;-0.09;100.00
46087;BME280;31824;49.648;8.640;2023-02-15T04:47:55;101754.31;;;-0.15;100.00
46087;BME280;31824;49.648;8.640;2023-02-15T04:50:57;101757.59;;;-0.16;100.00
46087;BME280;31824;49.648;8.640;2023-02-15T04:54:00;101755.28;;;-0.09;100.00
46087;BME280;31824;49.648;8.640;2023-02-15T04:57:02;101758.06;;;-0.13;100.00
46087;BME280;31824;49.648;8.640;2023-02-15T05:00:05;101760.34;;;-0.26;100.00
46087;BME280;31824;49.648;8.640;2023-02-15T05:03:10;101755.25;;;-0.14;100.00
46087;BME280;31824;49.648;8.640;2023-02-15T05:06:11;101749.53;;;-0.23;100.00
46087;BME280;31824;49.648;8.640;2023-02-15T05:09:15;101748.19;;;-0.15;100.00
46087;BME280;31824;49.648;8.640;2023-02-15T05:12:17;101747.03;;;-0.12;100.00
46087;BME280;31824;49.648;8.640;2023-02-15T05:15:18;101743.78;;;-0.11;100.00
46087;BME280;31824;49.648;8.640;2023-02-15T05:18:21;101739.28;;;-0.12;100.00
46087;BME280;31824;49.648;8.640;2023-02-15T05:21:23;101746.00;;;-0.29;100.00
46087;BME280;31824;49.648;8.640;2023-02-15T05:24:26;101742.97;;;-0.27;100.00
46087;BME280;31824;49.648;8.640;2023-02-15T05:27:46;101747.47;;;-0.20;100.00
46087;BME280;31824;49.648;8.640;2023-02-15T05:31:09;101746.19;;;-0.33;100.00
46087;BME280;31824;49.648;8.640;2023-02-15T05:34:12;101742.94;;;-0.32;100.00
46087;BME280;31824;49.648;8.640;2023-02-15T05:37:13;101743.41;;;-0.29;100.00
46087;BME280;31824;49.648;8.640;2023-02-15T05:40:17;101754.25;;;-0.21;100.00
46087;BME280;31824;49.648;8.640;2023-02-15T05:43:19;101757.56;;;-0.22;100.00
46087;BME280;31824;49.648;8.640;2023-02-15T05:46:20;101761.31;;;-0.20;100.00
46087;BME280;31824;49.648;8.640;2023-02-15T05:49:22;101760.41;;;-0.14;100.00
46087;BME280;31824;49.648;8.640;2023-02-15T05:52:24;101754.03;;;-0.17;100.00
46087;BME280;31824;49.648;8.640;2023-02-15T05:55:27;101755.94;;;-0.15;100.00
46087;BME280;31824;49.648;8.640;2023-02-15T05:58:31;101754.34;;;-0.09;100.00
46087;BME280;31824;49.648;8.640;2023-02-15T06:01:33;101760.00;;;-0.06;100.00
46087;BME280;31824;49.648;8.640;2023-02-15T06:04:35;101767.25;;;-0.09;100.00
46087;BME280;31824;49.648;8.640;2023-02-15T06:07:37;101762.78;;;-0.10;100.00
46087;BME280;31824;49.648;8.640;2023-02-15T06:10:40;101762.56;;;-0.06;100.00
46087;BME280;31824;49.648;8.640;2023-02-15T06:13:41;101766.28;;;-0.10;100.00
46087;BME280;31824;49.648;8.640;2023-02-15T06:16:43;101759.47;;;-0.15;100.00
46087;BME280;31824;49.648;8.640;2023-02-15T06:19:45;101773.34;;;-0.09;100.00
46087;BME280;31824;49.648;8.640;2023-02-15T06:22:47;101763.72;;;-0.10;100.00
46087;BME280;31824;49.648;8.640;2023-02-15T06:25:50;101756.16;;;-0.20;100.00
46087;BME280;31824;49.648;8.640;2023-02-15T06:28:52;101760.34;;;-0.26;100.00
46087;BME280;31824;49.648;8.640;2023-02-15T06:31:54;101769.81;;;-0.15;100.00
46087;BME280;31824;49.648;8.640;2023-02-15T06:34:55;101776.81;;;-0.20;100.00
46087;BME280;31824;49.648;8.640;2023-02-15T06:37:57;101784.41;;;-0.04;100.00
46087;BME280;31824;49.648;8.640;2023-02-15T06:41:00;101785.38;;;-0.04;100.00
46087;BME280;31824;49.648;8.640;2023-02-15T06:44:02;101792.47;;;0.03;100.00
46087;BME280;31824;49.648;8.640;2023-02-15T06:47:04;101788.22;;;0.04;100.00
46087;BME280;31824;49.648;8.640;2023-02-15T06:50:07;101787.09;;;0.07;100.00
46087;BME280;31824;49.648;8.640;2023-02-15T06:53:09;101795.34;;;0.16;100.00
46087;BME280;31824;49.648;8.640;2023-02-15T06:56:12;101788.78;;;0.18;100.00
46087;BME280;31824;49.648;8.640;2023-02-15T06:59:14;101794.88;;;0.13;100.00
46087;BME280;31824;49.648;8.640;2023-02-15T07:02:16;101789.00;;;0.14;100.00
46087;BME280;31824;49.648;8.640;2023-02-15T07:05:17;101798.22;;;0.23;100.00
46087;BME280;31824;49.648;8.640;2023-02-15T07:08:19;101804.78;;;0.27;100.00
46087;BME280;31824;49.648;8.640;2023-02-15T07:11:23;101805.75;;;0.27;100.00
46087;BME280;31824;49.648;8.640;2023-02-15T07:14:43;101797.47;;;0.19;100.00
46087;BME280;31824;49.648;8.640;2023-02-15T07:17:45;101795.56;;;0.17;100.00
46087;BME280;31824;49.648;8.640;2023-02-15T07:20:47;101789.06;;;0.31;100.00
46087;BME280;31824;49.648;8.640;2023-02-15T07:23:49;101788.38;;;0.32;100.00
46087;BME280;31824;49.648;8.640;2023-02-15T07:26:52;101778.28;;;0.33;100.00
46087;BME280;31824;49.648;8.640;2023-02-15T07:29:54;101778.31;;;0.45;100.00
46087;BME280;31824;49.648;8.640;2023-02-15T07:32:56;101786.06;;;0.45;100.00
46087;BME280;31824;49.648;8.640;2023-02-15T07:36:16;101791.75;;;0.48;100.00
46087;BME280;31824;49.648;8.640;2023-02-15T07:39:17;101793.34;;;0.42;100.00
46087;BME280;31824;49.648;8.640;2023-02-15T07:42:21;101796.69;;;0.46;100.00
46087;BME280;31824;49.648;8.640;2023-02-15T07:45:23;101790.31;;;0.44;100.00
46087;BME280;31824;49.648;8.640;2023-02-15T07:48:25;101782.78;;;0.46;100.00
46087;BME280;31824;49.648;8.640;2023-02-15T07:51:27;101776.50;;;0.61;100.00
46087;BME280;31824;49.648;8.640;2023-02-15T07:54:28;101776.94;;;0.53;100.00
46087;BME280;31824;49.648;8.640;2023-02-15T07:57:31;101783.34;;;0.66;100.00
46087;BME280;31824;49.648;8.640;2023-02-15T08:00:33;101771.59;;;0.68;100.00
46087;BME280;31824;49.648;8.640;2023-02-15T08:03:55;101771.84;;;0.70;100.00
46087;BME280;31824;49.648;8.640;2023-02-15T08:06:58;101776.28;;;0.71;100.00
46087;BME280;31824;49.648;8.640;2023-02-15T08:10:00;101772.06;;;0.65;100.00
46087;BME280;31824;49.648;8.640;2023-02-15T08:13:03;101759.84;;;0.70;100.00
46087;BME280;31824;49.648;8.640;2023-02-15T08:16:05;101773.97;;;0.78;100.00
46087;BME280;31824;49.648;8.640;2023-02-15T08:19:08;101781.44;;;0.59;100.00
46087;BME280;31824;49.648;8.640;2023-02-15T08:22:12;101770.88;;;0.75;100.00
46087;BME280;31824;49.648;8.640;2023-02-15T08:25:34;101772.31;;;0.78;100.00
46087;BME280;31824;49.648;8.640;2023-02-15T08:28:37;101769.03;;;0.74;100.00
46087;BME280;31824;49.648;8.640;2023-02-15T08:31:40;101760.28;;;0.56;100.00
46087;BME280;31824;49.648;8.640;2023-02-15T08:34:43;101763.41;;;0.93;100.00
46087;BME280;31824;49.648;8.640;2023-02-15T08:37:44;101760.81;;;0.93;100.00
46087;BME280;31824;49.648;8.640;2023-02-15T08:40:47;101758.25;;;1.05;100.00
46087;BME280;31824;49.648;8.640;2023-02-15T08:43:51;101761.09;;;1.06;100.00
46087;BME280;31824;49.648;8.640;2023-02-15T08:46:53;101751.69;;;1.01;100.00
46087;BME280;31824;49.648;8.640;2023-02-15T08:49:56;101751.22;;;1.04;100.00
46087;BME280;31824;49.648;8.640;2023-02-15T08:52:57;101751.22;;;1.09;100.00
46087;BME280;31824;49.648;8.640;2023-02-15T08:55:59;101745.34;;;1.16;100.00
46087;BME280;31824;49.648;8.640;2023-02-15T08:59:03;101738.25;;;1.21;100.00
46087;BME280;31824;49.648;8.640;2023-02-15T09:02:05;101736.59;;;1.15;100.00
46087;BME280;31824;49.648;8.640;2023-02-15T09:05:07;101730.50;;;1.21;100.00
46087;BME280;31824;49.648;8.640;2023-02-15T09:08:09;101725.81;;;1.29;100.00
46087;BME280;31824;49.648;8.640;2023-02-15T09:11:12;101715.69;;;1.31;100.00
46087;BME280;31824;49.648;8.640;2023-02-15T09:14:20;101726.50;;;1.40;100.00
46087;BME280;31824;49.648;8.640;2023-02-15T09:17:23;101725.81;;;1.29;100.00
46087;BME280;31824;49.648;8.640;2023-02-15T09:20:24;101729.78;;;1.27;100.00
46087;BME280;31824;49.648;8.640;2023-02-15T09:23:27;101724.16;;;1.35;100.00
46087;BME280;31824;49.648;8.640;2023-02-15T09:26:30;101720.41;;;1.33;100.00
46087;BME280;31824;49.648;8.640;2023-02-15T09:29:34;101719.91;;;1.42;100.00
46087;BME280;31824;49.648;8.640;2023-02-15T09:32:36;101717.78;;;1.45;100.00
46087;BME280;31824;49.648;8.640;2023-02-15T09:35:37;101703.41;;;1.47;100.00
46087;BME280;31824;49.648;8.640;2023-02-15T09:38:39;101705.31;;;1.37;100.00
46087;BME280;31824;49.648;8.640;2023-02-15T09:46:03;101711.66;;;1.50;100.00
46087;BME280;31824;49.648;8.640;2023-02-15T09:49:15;101712.81;;;1.52;100.00
46087;BME280;31824;49.648;8.640;2023-02-15T09:52:32;101716.56;;;1.65;100.00
46087;BME280;31824;49.648;8.640;2023-02-15T09:55:44;101718.47;;;1.49;100.00
46087;BME280;31824;49.648;8.640;2023-02-15T09:58:53;101707.66;;;1.41;100.00
46087;BME280;31824;49.648;8.640;2023-02-15T10:02:14;101715.16;;;1.56;100.00
46087;BME280;31824;49.648;8.640;2023-02-15T10:05:27;101714.47;;;1.51;100.00
46087;BME280;31824;49.648;8.640;2023-02-15T10:08:54;101726.47;;;1.62;100.00
46087;BME280;31824;49.648;8.640;2023-02-15T10:12:12;101722.25;;;1.46;100.00
46087;BME280;31824;49.648;8.640;2023-02-15T10:15:26;101727.22;;;1.50;100.00
46087;BME280;31824;49.648;8.640;2023-02-15T10:18:48;101728.34;;;1.58;100.00
46087;BME280;31824;49.648;8.640;2023-02-15T10:21:59;101731.91;;;1.58;100.00
46087;BME280;31824;49.648;8.640;2023-02-15T10:25:16;101738.47;;;1.73;100.00
46087;BME280;31824;49.648;8.640;2023-02-15T10:28:23;101727.66;;;1.70;100.00
46087;BME280;31824;49.648;8.640;2023-02-15T10:31:33;101739.88;;;1.65;100.00
46087;BME280;31824;49.648;8.640;2023-02-15T10:34:46;101744.16;;;1.65;100.00
46087;BME280;31824;49.648;8.640;2023-02-15T10:38:18;101744.63;;;1.57;100.00
46087;BME280;31824;49.648;8.640;2023-02-15T10:41:29;101740.41;;;1.46;100.00
46087;BME280;31824;49.648;8.640;2023-02-15T10:44:45;101739.19;;;1.44;100.00
46087;BME280;31824;49.648;8.640;2023-02-15T10:51:21;101743.91;;;1.52;100.00
46087;BME280;31824;49.648;8.640;2023-02-15T10:54:33;101743.91;;;1.52;100.00
46087;BME280;31824;49.648;8.640;2023-02-15T10:57:46;101743.00;;;1.40;100.00
46087;BME280;31824;49.648;8.640;2023-02-15T11:00:55;101740.16;;;1.56;100.00
46087;BME280;31824;49.648;8.640;2023-02-15T11:04:29;101744.38;;;1.61;100.00
46087;BME280;31824;49.648;8.640;2023-02-15T11:07:40;101736.38;;;1.59;100.00
46087;BME280;31824;49.648;8.640;2023-02-15T11:10:46;101720.81;;;1.71;100.00
46087;BME280;31824;49.648;8.640;2023-02-15T11:13:53;101722.94;;;1.67;100.00
46087;BME280;31824;49.648;8.640;2023-02-15T11:17:02;101716.78;;;1.84;100.00
46087;BME280;31824;49.648;8.640;2023-02-15T11:20:16;101707.38;;;1.73;100.00
46087;BME280;31824;49.648;8.640;2023-02-15T11:23:21;101702.63;;;1.88;100.00
46087;BME280;31824;49.648;8.640;2023-02-15T11:26:30;101693.47;;;1.84;100.00
46087;BME280;31824;49.648;8.640;2023-02-15T11:29:37;101686.88;;;1.75;100.00
46087;BME280;31824;49.648;8.640;2023-02-15T11:32:41;101675.34;;;1.78;100.00
46087;BME280;31824;49.648;8.640;2023-02-15T11:35:50;101674.63;;;1.74;100.00
46087;BME280;31824;49.648;8.640;2023-02-15T11:38:58;101675.31;;;1.73;100.00
46087;BME280;31824;49.648;8.640;2023-02-15T11:42:04;101682.16;;;1.78;100.00
46087;BME280;31824;49.648;8.640;2023-02-15T11:45:22;101666.84;;;1.85;100.00
46087;BME280;31824;49.648;8.640;2023-02-15T11:48:29;101668.56;;;2.20;100.00
46087;BME280;31824;49.648;8.640;2023-02-15T11:51:32;101670.78;;;2.00;100.00
46087;BME280;31824;49.648;8.640;2023-02-15T11:54:36;101678.56;;;1.94;100.00
46087;BME280;31824;49.648;8.640;2023-02-15T11:57:42;101669.78;;;2.11;100.00
46087;BME280;31824;49.648;8.640;2023-02-15T12:00:47;101662.72;;;2.10;100.00
46087;BME280;31824;49.648;8.640;2023-02-15T12:03:53;101658.00;;;2.13;100.00
46087;BME280;31824;49.648;8.640;2023-02-15T12:06:59;101658.22;;;2.14;100.00
46087;BME280;31824;49.648;8.640;2023-02-15T12:10:17;101653.69;;;2.25;100.00
46087;BME280;31824;49.648;8.640;2023-02-15T12:13:20;101653.50;;;2.12;100.00
46087;BME280;31824;49.648;8.640;2023-02-15T12:16:22;101643.84;;;2.16;100.00
46087;BME280;31824;49.648;8.640;2023-02-15T12:19:29;101646.31;;;2.33;100.00
46087;BME280;31824;49.648;8.640;2023-02-15T12:22:34;101643.06;;;2.29;100.00
46087;BME280;31824;49.648;8.640;2023-02-15T12:25:39;101638.56;;;2.33;100.00
46087;BME280;31824;49.648;8.640;2023-02-15T12:28:43;101632.22;;;2.26;100.00
46087;BME280;31824;49.648;8.640;2023-02-15T12:31:53;101628.56;;;2.48;100.00
46087;BME280;31824;49.648;8.640;2023-02-15T12:35:00;101625.84;;;2.29;100.00
46087;BME280;31824;49.648;8.640;2023-02-15T12:38:19;101624.47;;;2.20;100.00
46087;BME280;31824;49.648;8.640;2023-02-15T12:41:25;101617.81;;;2.33;100.00
46087;BME280;31824;49.648;8.640;2023-02-15T12:44:29;101622.91;;;2.50;100.00
46087;BME280;31824;49.648;8.640;2023-02-15T12:47:31;101608.03;;;2.49;100.00
46087;BME280;31824;49.648;8.640;2023-02-15T12:50:33;101614.09;;;2.61;100.00
46087;BME280;31824;49.648;8.640;2023-02-15T12:53:36;101599.97;;;2.83;100.00
46087;BME280;31824;49.648;8.640;2023-02-15T12:56:40;101606.69;;;3.00;100.00
46087;BME280;31824;49.648;8.640;2023-02-15T12:59:49;101599.44;;;2.62;100.00
46087;BME280;31824;49.648;8.640;2023-02-15T13:02:53;101598.53;;;2.56;100.00
46087;BME280;31824;49.648;8.640;2023-02-15T13:05:56;101600.97;;;2.78;100.00
46087;BME280;31824;49.648;8.640;2023-02-15T13:09:06;101593.88;;;2.83;100.00
46087;BME280;31824;49.648;8.640;2023-02-15T13:12:24;101589.00;;;2.97;100.00
46087;BME280;31824;49.648;8.640;2023-02-15T13:15:33;101581.59;;;2.82;100.00
46087;BME280;31824;49.648;8.640;2023-02-15T13:18:38;101580.16;;;2.84;100.00
46087;BME280;31824;49.648;8.640;2023-02-15T13:21:43;101575.19;;;2.85;100.00
46087;BME280;31824;49.648;8.640;2023-02-15T13:24:48;101577.00;;;2.92;100.00
46087;BME280;31824;49.648;8.640;2023-02-15T13:27:53;101569.81;;;2.78;100.00
46087;BME280;31824;49.648;8.640;2023-02-15T13:30:56;101571.81;;;2.92;100.00
46087;BME280;31824;49.648;8.640;2023-02-15T13:34:02;101573.31;;;2.84;100.00
46087;BME280;31824;49.648;8.640;2023-02-15T13:37:10;101566.97;;;3.07;100.00
46087;BME280;31824;49.648;8.640;2023-02-15T13:40:21;101555.09;;;2.90;100.00
46087;BME280;31824;49.648;8.640;2023-02-15T13:43:35;101557.56;;;3.01;100.00
46087;BME280;31824;49.648;8.640;2023-02-15T13:47:01;101554.31;;;2.97;100.00
46087;BME280;31824;49.648;8.640;2023-02-15T13:50:19;101549.78;;;2.77;100.00
46087;BME280;31824;49.648;8.640;2023-02-15T13:53:34;101536.78;;;2.83;100.00
46087;BME280;31824;49.648;8.640;2023-02-15T13:56:54;101534.19;;;3.01;100.00
46087;BME280;31824;49.648;8.640;2023-02-15T14:00:13;101537.13;;;2.92;100.00
46087;BME280;31824;49.648;8.640;2023-02-15T14:03:43;101537.34;;;2.93;100.00
46087;BME280;31824;49.648;8.640;2023-02-15T14:10:37;101529.91;;;3.08;100.00
46087;BME280;31824;49.648;8.640;2023-02-15T14:13:50;101521.00;;;3.00;100.00
46087;BME280;31824;49.648;8.640;2023-02-15T14:17:03;101518.19;;;2.98;100.00
46087;BME280;31824;49.648;8.640;2023-02-15T14:20:14;101526.25;;;3.18;100.00
46087;BME280;31824;49.648;8.640;2023-02-15T14:23:30;101526.41;;;3.01;100.00
46087;BME280;31824;49.648;8.640;2023-02-15T14:26:41;101529.91;;;2.83;100.00
46087;BME280;31824;49.648;8.640;2023-02-15T14:29:50;101529.19;;;2.84;100.00
46087;BME280;31824;49.648;8.640;2023-02-15T14:32:57;101541.41;;;2.91;100.00
46087;BME280;31824;49.648;8.640;2023-02-15T14:36:02;101532.50;;;3.08;100.00
46087;BME280;31824;49.648;8.640;2023-02-15T14:39:15;101537.34;;;2.93;100.00
46087;BME280;31824;49.648;8.640;2023-02-15T14:42:42;101540.38;;;2.96;100.00
46087;BME280;31824;49.648;8.640;2023-02-15T14:45:52;101535.19;;;2.96;100.00
46087;BME280;31824;49.648;8.640;2023-02-15T14:48:57;101527.13;;;3.00;100.00
46087;BME280;31824;49.648;8.640;2023-02-15T14:52:06;101525.50;;;3.01;100.00
46087;BME280;31824;49.648;8.640;2023-02-15T14:55:09;101529.41;;;2.86;100.00
46087;BME280;31824;49.648;8.640;2023-02-15T14:58:12;101520.94;;;2.81;100.00
46087;BME280;31824;49.648;8.640;2023-02-15T15:01:14;101513.22;;;2.76;100.00
46087;BME280;31824;49.648;8.640;2023-02-15T15:04:25;101515.38;;;2.97;100.00
46087;BME280;31824;49.648;8.640;2023-02-15T15:07:34;101509.91;;;3.01;100.00
46087;BME280;31824;49.648;8.640;2023-02-15T15:10:40;101514.41;;;3.02;100.00
46087;BME280;31824;49.648;8.640;2023-02-15T15:13:53;101500.16;;;2.87;100.00
46087;BME280;31824;49.648;8.640;2023-02-15T15:16:54;101511.13;;;2.97;100.00
46087;BME280;31824;49.648;8.640;2023-02-15T15:20:00;101512.00;;;3.03;100.00
46087;BME280;31824;49.648;8.640;2023-02-15T15:23:36;101510.50;;;3.11;100.00
46087;BME280;31824;49.648;8.640;2023-02-15T15:26:40;101505.47;;;3.18;100.00
46087;BME280;31824;49.648;8.640;2023-02-15T15:29:51;101502.63;;;2.98;100.00
46087;BME280;31824;49.648;8.640;2023-02-15T15:32:59;101502.00;;;2.88;100.00
46087;BME280;31824;49.648;8.640;2023-02-15T15:36:28;101507.94;;;2.87;100.00
46087;BME280;31824;49.648;8.640;2023-02-15T15:40:00;101526.38;;;2.83;100.00
46087;BME280;31824;49.648;8.640;2023-02-15T15:43:39;101519.19;;;2.93;100.00
46087;BME280;31824;49.648;8.640;2023-02-15T15:47:15;101523.06;;;2.84;100.00
46087;BME280;31824;49.648;8.640;2023-02-15T15:50:22;101528.50;;;2.80;100.00
46087;BME280;31824;49.648;8.640;2023-02-15T15:53:28;101515.66;;;2.68;100.00
46087;BME280;31824;49.648;8.640;2023-02-15T15:56:33;101513.56;;;2.66;100.00
46087;BME280;31824;49.648;8.640;2023-02-15T15:59:36;101518.25;;;2.68;100.00
46087;BME280;31824;49.648;8.640;2023-02-15T16:02:50;101508.25;;;2.53;100.00
46087;BME280;31824;49.648;8.640;2023-02-15T16:05:52;101516.91;;;2.59;100.00
46087;BME280;31824;49.648;8.640;2023-02-15T16:09:09;101525.41;;;2.58;100.00
46087;BME280;31824;49.648;8.640;2023-02-15T16:12:15;101525.13;;;2.62;100.00
46087;BME280;31824;49.648;8.640;2023-02-15T16:15:20;101530.06;;;2.66;100.00
46087;BME280;31824;49.648;8.640;2023-02-15T16:18:26;101525.63;;;2.60;100.00
46087;BME280;31824;49.648;8.640;2023-02-15T16:21:31;101530.38;;;2.57;100.00
46087;BME280;31824;49.648;8.640;2023-02-15T16:28:19;101528.53;;;2.50;100.00